Time;durP1;ratioP1;P1;durP2;ratioP2;P2;SDS_P1;SDS_P2;PMS_P1;PMS_P2;Temp;Humidity;BMP_temperature;BMP_pressure;BME280_temperature;BME280_humidity;BME280_pressure;Samples;Min_cycle;Max_cycle;Signal;HPM_P1;HPM_P2
2022/12/09 00:00:42;;;;;;;20.90;5.43;;;27.50;89.10;;;;;;5003263;28;20030;-56
2022/12/09 00:03:09;;;;;;;19.50;6.70;;;27.50;89.40;;;;;;5003410;28;20029;-55
2022/12/09 00:05:40;;;;;;;20.08;5.72;;;27.50;89.20;;;;;;4983551;28;20042;-53
2022/12/09 00:08:07;;;;;;;10.55;4.50;;;27.60;88.40;;;;;;4975795;28;20219;-53
2022/12/09 00:10:33;;;;;;;10.10;4.60;;;27.50;88.50;;;;;;4977941;28;20031;-53
2022/12/09 00:13:00;;;;;;;9.35;4.32;;;27.40;88.50;;;;;;5000156;28;20060;-54
2022/12/09 00:15:27;;;;;;;12.85;5.03;;;27.30;88.30;;;;;;5003040;28;20022;-55
2022/12/09 00:17:53;;;;;;;13.73;4.95;;;27.30;88.70;;;;;;5002091;28;20062;-56
2022/12/09 00:20:20;;;;;;;14.88;5.30;;;27.40;88.70;;;;;;5003112;28;20024;-52
2022/12/09 00:22:47;;;;;;;9.93;5.20;;;27.40;88.50;;;;;;5003524;28;20038;-55
2022/12/09 00:25:13;;;;;;;10.18;5.15;;;27.50;88.20;;;;;;5003253;28;20099;-53
2022/12/09 00:27:40;;;;;;;11.82;5.50;;;27.60;87.70;;;;;;5002924;28;20196;-56
2022/12/09 00:30:07;;;;;;;13.20;6.22;;;27.60;87.40;;;;;;5003210;28;20026;-53
2022/12/09 00:32:33;;;;;;;12.55;8.00;;;27.70;87.10;;;;;;5003610;28;20030;-54
2022/12/09 00:35:00;;;;;;;17.02;8.98;;;27.70;86.80;;;;;;5002793;28;20142;-54
2022/12/09 00:37:27;;;;;;;11.70;7.88;;;27.70;86.40;;;;;;5003375;28;20019;-54
2022/12/09 00:39:53;;;;;;;15.35;9.40;;;27.70;86.20;;;;;;5002968;28;20029;-54
2022/12/09 00:42:20;;;;;;;16.83;9.60;;;27.80;85.80;;;;;;5003201;28;20331;-52
2022/12/09 00:44:47;;;;;;;16.58;9.98;;;27.80;85.50;;;;;;5002817;28;20102;-55
2022/12/09 00:47:13;;;;;;;13.70;7.72;;;27.80;85.20;;;;;;5003416;28;20038;-55
2022/12/09 00:49:40;;;;;;;11.82;6.60;;;27.80;85.00;;;;;;5002627;28;20025;-56
2022/12/09 00:52:06;;;;;;;7.82;5.25;;;27.80;84.80;;;;;;5002637;28;20445;-54
2022/12/09 00:54:33;;;;;;;11.27;5.82;;;27.80;84.70;;;;;;5002628;28;20377;-53
2022/12/09 00:57:00;;;;;;;10.07;5.03;;;27.80;84.40;;;;;;5002862;28;20048;-55
2022/12/09 00:59:27;;;;;;;12.27;4.57;;;27.80;84.40;;;;;;5002420;28;20034;-55
2022/12/09 01:01:53;;;;;;;8.00;4.38;;;27.80;84.80;;;;;;5002769;28;20031;-53
2022/12/09 01:04:20;;;;;;;9.43;4.30;;;27.80;84.20;;;;;;5002504;28;20094;-53
2022/12/09 01:06:47;;;;;;;7.03;3.90;;;27.70;84.00;;;;;;5002446;28;20206;-54
2022/12/09 01:09:14;;;;;;;8.88;3.75;;;27.70;83.90;;;;;;5002372;28;20018;-55
2022/12/09 01:11:41;;;;;;;9.25;3.72;;;27.70;83.60;;;;;;5002674;28;20054;-54
2022/12/09 01:14:07;;;;;;;16.33;4.60;;;27.70;83.50;;;;;;5002312;28;20336;-57
2022/12/09 01:16:37;;;;;;;17.65;4.63;;;27.70;83.50;;;;;;5002608;28;20251;-56
2022/12/09 01:19:08;;;;;;;10.35;4.20;;;27.70;83.20;;;;;;5001436;28;20030;-56
2022/12/09 01:21:35;;;;;;;8.90;3.90;;;27.70;83.30;;;;;;5001151;28;20274;-56
2022/12/09 01:24:06;;;;;;;10.50;4.50;;;27.70;83.20;;;;;;5001980;28;20148;-55
2022/12/09 01:26:33;;;;;;;12.77;4.03;;;27.70;83.10;;;;;;5002131;28;20030;-55
2022/12/09 01:29:00;;;;;;;10.57;4.32;;;27.70;83.10;;;;;;5001482;28;20023;-55
2022/12/09 01:31:26;;;;;;;7.75;4.13;;;27.60;82.90;;;;;;5002153;28;20061;-56
2022/12/09 01:33:55;;;;;;;7.80;4.18;;;27.60;83.00;;;;;;5001846;28;20068;-56
2022/12/09 01:36:24;;;;;;;7.93;3.60;;;27.60;82.80;;;;;;5001814;28;20046;-54
2022/12/09 01:38:51;;;;;;;6.60;3.55;;;27.60;82.90;;;;;;5001813;28;20064;-52
2022/12/09 01:41:19;;;;;;;8.05;3.47;;;27.60;82.70;;;;;;5001891;28;20038;-55
2022/12/09 01:44:07;;;;;;;6.20;3.40;;;27.60;82.80;;;;;;5002220;28;20222;-57
2022/12/09 01:46:34;;;;;;;6.72;3.40;;;27.60;82.70;;;;;;5002293;28;20046;-54
2022/12/09 01:49:05;;;;;;;4.55;3.05;;;27.50;82.60;;;;;;5002039;28;20046;-56
2022/12/09 01:51:32;;;;;;;5.57;2.92;;;27.50;82.50;;;;;;5001757;28;20028;-61
2022/12/09 01:54:08;;;;;;;4.18;2.83;;;27.50;82.50;;;;;;5001613;28;20330;-60
2022/12/09 01:56:36;;;;;;;4.63;3.00;;;27.50;82.50;;;;;;5001837;28;20014;-55
2022/12/09 01:59:09;;;;;;;3.20;2.80;;;27.50;82.50;;;;;;5001745;28;20046;-55
2022/12/09 02:01:36;;;;;;;4.38;3.08;;;27.50;82.40;;;;;;5002038;28;20037;-55
2022/12/09 02:04:04;;;;;;;6.10;3.58;;;27.50;82.20;;;;;;5001599;28;20034;-53
2022/12/09 02:06:30;;;;;;;5.03;3.20;;;27.50;82.20;;;;;;5001700;28;20329;-51
2022/12/09 02:08:58;;;;;;;8.50;3.60;;;27.50;82.20;;;;;;5001967;28;20102;-53
2022/12/09 02:11:49;;;;;;;4.65;3.38;;;27.40;82.20;;;;;;5001723;28;20029;-54
2022/12/09 02:14:26;;;;;;;5.93;3.17;;;27.40;82.20;;;;;;5001570;28;20338;-56
2022/12/09 02:17:05;;;;;;;5.47;3.33;;;27.40;82.20;;;;;;5001586;28;20034;-57
2022/12/09 02:20:10;;;;;;;7.20;3.35;;;27.40;82.30;;;;;;5001615;28;20080;-55
2022/12/09 02:23:09;;;;;;;5.47;3.50;;;27.40;82.30;;;;;;5001859;28;20026;-55
2022/12/09 02:25:46;;;;;;;6.60;3.85;;;27.40;82.40;;;;;;5002925;28;20252;-54
2022/12/09 02:28:27;;;;;;;9.35;3.90;;;27.40;82.40;;;;;;5001283;28;20091;-55
2022/12/09 02:31:21;;;;;;;6.75;3.95;;;27.30;82.40;;;;;;5001289;28;20030;-55
2022/12/09 02:34:26;;;;;;;4.43;3.40;;;27.30;82.40;;;;;;5001260;28;20056;-54
2022/12/09 02:37:09;;;;;;;6.90;3.60;;;27.30;82.50;;;;;;5009931;28;20037;-55
2022/12/09 02:39:42;;;;;;;8.88;3.30;;;27.30;82.70;;;;;;5002865;28;20054;-55
2022/12/09 02:42:09;;;;;;;;;;;27.30;82.90;;;;;;5005429;28;20078;-57
2022/12/09 02:44:38;;;;;;;5.82;3.13;;;27.20;83.00;;;;;;5004142;28;19950;-55
2022/12/09 02:47:08;;;;;;;5.57;3.53;;;27.20;83.10;;;;;;5004834;28;20042;-55
2022/12/09 02:49:36;;;;;;;8.35;4.13;;;27.20;83.20;;;;;;5004703;28;20258;-55
2022/12/09 02:52:05;;;;;;;7.22;4.07;;;27.20;83.50;;;;;;5004833;28;20078;-55
2022/12/09 02:54:33;;;;;;;8.82;4.65;;;27.20;83.70;;;;;;5004418;28;20038;-55
2022/12/09 02:57:06;;;;;;;14.40;7.03;;;27.20;84.00;;;;;;5004807;28;20022;-54
2022/12/09 02:59:33;;;;;;;17.60;9.18;;;27.20;84.20;;;;;;5003205;28;20286;-55
2022/12/09 03:02:07;;;;;;;47.58;25.52;;;27.20;84.30;;;;;;5004586;28;20022;-57
2022/12/09 03:04:36;;;;;;;80.97;45.55;;;27.20;84.40;;;;;;5004146;28;20051;-56
2022/12/09 03:07:20;;;;;;;76.72;42.97;;;27.10;84.50;;;;;;5004634;28;20190;-55
2022/12/09 03:09:53;;;;;;;54.45;32.25;;;27.10;84.60;;;;;;5004181;28;20294;-56
2022/12/09 03:12:24;;;;;;;41.55;23.92;;;27.10;84.70;;;;;;5004642;28;20018;-54
2022/12/09 03:14:53;;;;;;;34.40;18.67;;;27.10;84.80;;;;;;5002905;28;20093;-57
2022/12/09 03:17:30;;;;;;;29.08;15.55;;;27.10;85.00;;;;;;5004344;28;20022;-54
2022/12/09 03:20:21;;;;;;;23.17;12.35;;;27.10;85.00;;;;;;5002934;28;20049;-53
2022/12/09 03:22:48;;;;;;;23.38;12.13;;;27.00;85.10;;;;;;5003940;28;20038;-55
2022/12/09 03:25:25;;;;;;;16.30;11.00;;;27.00;85.20;;;;;;5003934;28;20038;-54
2022/12/09 03:28:09;;;;;;;25.63;22.17;;;27.00;85.30;;;;;;5004254;28;20023;-58
2022/12/09 03:30:40;;;;;;;26.55;23.73;;;27.00;85.20;;;;;;5003717;28;20022;-57
2022/12/09 03:33:09;;;;;;;25.83;22.08;;;27.00;85.20;;;;;;5003742;28;20041;-58
2022/12/09 03:35:46;;;;;;;23.88;17.08;;;26.90;85.20;;;;;;5003832;28;20060;-55
2022/12/09 03:38:18;;;;;;;24.20;18.27;;;26.90;85.30;;;;;;5003756;28;20345;-54
2022/12/09 03:40:49;;;;;;;20.55;17.52;;;26.90;85.30;;;;;;5003682;28;20249;-53
2022/12/09 03:43:26;;;;;;;22.90;15.77;;;26.90;85.30;;;;;;5003857;28;20261;-55
2022/12/09 03:45:54;;;;;;;17.48;12.82;;;26.90;85.30;;;;;;5003457;28;20104;-53
2022/12/09 03:48:22;;;;;;;16.20;11.05;;;26.90;85.30;;;;;;5003707;28;20027;-53
2022/12/09 03:50:54;;;;;;;14.55;9.25;;;26.90;85.30;;;;;;5002810;28;20030;-56
2022/12/09 03:53:41;;;;;;;16.20;9.77;;;26.80;85.40;;;;;;5003629;28;20022;-57
2022/12/09 03:56:21;;;;;;;17.83;8.52;;;26.90;85.50;;;;;;5003625;28;20042;-56
2022/12/09 03:58:53;;;;;;;13.55;7.35;;;26.80;85.50;;;;;;5003535;28;20026;-56
2022/12/09 04:01:22;;;;;;;11.70;6.55;;;26.80;85.70;;;;;;5003569;28;20053;-54
2022/12/09 04:03:51;;;;;;;15.93;7.65;;;26.80;85.70;;;;;;5003650;28;20076;-57
2022/12/09 04:06:18;;;;;;;15.68;7.63;;;26.80;85.60;;;;;;5003354;28;20030;-54
2022/12/09 04:08:44;;;;;;;15.02;6.60;;;26.80;85.60;;;;;;5003377;28;20098;-54
2022/12/09 04:11:11;;;;;;;13.10;5.38;;;26.70;85.50;;;;;;5003540;28;20019;-55
2022/12/09 04:13:37;;;;;;;9.45;5.50;;;26.70;85.40;;;;;;5003340;28;20038;-54
2022/12/09 04:16:04;;;;;;;9.68;4.80;;;26.70;85.20;;;;;;5003151;28;20023;-54
2022/12/09 04:18:31;;;;;;;5.60;4.00;;;26.70;85.10;;;;;;5003227;28;20034;-54
2022/12/09 04:20:57;;;;;;;9.93;4.03;;;26.70;85.60;;;;;;5003162;28;20030;-57
2022/12/09 04:23:24;;;;;;;6.22;3.50;;;26.80;85.10;;;;;;5003302;28;20045;-55
2022/12/09 04:25:50;;;;;;;7.90;3.90;;;26.70;84.90;;;;;;5003058;28;20038;-55
2022/12/09 04:28:17;;;;;;;7.53;3.47;;;26.70;84.90;;;;;;5003061;28;20030;-56
2022/12/09 04:30:47;;;;;;;6.47;3.53;;;26.70;84.90;;;;;;5002837;28;20019;-54
2022/12/09 04:33:13;;;;;;;5.30;3.70;;;26.70;84.90;;;;;;5003046;28;20075;-54
2022/12/09 04:35:40;;;;;;;7.43;3.90;;;26.70;84.90;;;;;;5002853;28;20049;-54
2022/12/09 04:38:07;;;;;;;4.80;3.47;;;26.60;84.80;;;;;;5002958;28;20038;-55
2022/12/09 04:40:33;;;;;;;8.50;3.60;;;26.70;84.90;;;;;;5002893;28;20041;-55
2022/12/09 04:43:00;;;;;;;6.28;3.50;;;26.60;84.70;;;;;;5002895;28;20038;-54
2022/12/09 04:45:26;;;;;;;5.32;3.72;;;26.60;84.60;;;;;;5002634;28;20362;-53
2022/12/09 04:47:53;;;;;;;5.07;3.38;;;26.60;84.50;;;;;;5003217;28;20034;-55
2022/12/09 04:50:19;;;;;;;4.53;3.60;;;26.70;84.40;;;;;;5002871;28;20048;-57
2022/12/09 04:52:46;;;;;;;4.55;3.78;;;26.60;84.40;;;;;;5002828;28;20044;-54
2022/12/09 04:55:14;;;;;;;4.47;3.28;;;26.60;84.40;;;;;;5001395;28;20027;-58
2022/12/09 04:57:41;;;;;;;3.78;2.90;;;26.60;84.30;;;;;;5001720;28;20026;-54
2022/12/09 05:00:13;;;;;;;3.80;3.13;;;26.60;84.20;;;;;;5002789;28;20026;-55
2022/12/09 05:02:39;;;;;;;5.18;3.25;;;26.60;84.20;;;;;;5001267;28;20067;-54
2022/12/09 05:05:06;;;;;;;5.05;3.45;;;26.60;84.20;;;;;;4984145;28;20200;-51
2022/12/09 05:07:33;;;;;;;8.05;3.33;;;26.60;84.40;;;;;;5016095;28;20039;-55
2022/12/09 05:09:59;;;;;;;4.28;3.30;;;26.60;84.30;;;;;;5028249;28;20032;-53
2022/12/09 05:12:26;;;;;;;6.05;3.22;;;26.60;84.20;;;;;;5084946;28;20020;-50
2022/12/09 05:14:52;;;;;;;4.53;2.92;;;26.60;84.10;;;;;;5052466;28;20036;-50
2022/12/09 05:17:19;;;;;;;5.50;3.33;;;26.60;84.00;;;;;;5053039;28;20020;-55
2022/12/09 05:19:45;;;;;;;7.70;3.30;;;26.60;84.00;;;;;;5084409;28;20028;-51
2022/12/09 05:22:16;;;;;;;6.85;3.22;;;26.70;84.00;;;;;;5024113;28;20041;-49
2022/12/09 05:24:43;;;;;;;6.70;3.22;;;26.60;83.90;;;;;;4998029;28;20278;-53
2022/12/09 05:27:11;;;;;;;6.60;3.53;;;26.60;84.00;;;;;;5002346;28;20053;-52
2022/12/09 05:29:37;;;;;;;5.32;3.08;;;26.60;84.10;;;;;;5002123;28;20094;-49
2022/12/09 05:32:04;;;;;;;3.70;3.13;;;26.60;84.20;;;;;;4995848;28;20037;-49
2022/12/09 05:34:30;;;;;;;6.72;3.20;;;26.60;84.10;;;;;;4996383;28;20319;-54
2022/12/09 05:36:57;;;;;;;7.50;2.90;;;26.60;84.10;;;;;;5002183;28;20314;-50
2022/12/09 05:39:24;;;;;;;4.05;3.60;;;26.50;84.10;;;;;;5001262;28;20102;-52
2022/12/09 05:41:50;;;;;;;8.15;3.13;;;26.60;84.30;;;;;;5018663;28;20158;-46
2022/12/09 05:44:17;;;;;;;5.80;2.80;;;26.60;84.30;;;;;;5056073;28;20029;-48
2022/12/09 05:46:43;;;;;;;5.63;2.88;;;26.60;84.40;;;;;;5016712;28;20219;-49
2022/12/09 05:49:10;;;;;;;6.45;3.33;;;26.50;84.30;;;;;;5084028;28;20102;-48
2022/12/09 05:51:36;;;;;;;4.88;3.03;;;26.50;84.40;;;;;;5083889;28;20020;-47
2022/12/09 05:54:05;;;;;;;5.07;3.20;;;26.50;84.40;;;;;;5083795;28;20059;-50
2022/12/09 05:56:32;;;;;;;7.40;3.10;;;26.50;84.50;;;;;;5084063;28;20032;-53
2022/12/09 05:58:59;;;;;;;8.43;2.85;;;26.50;84.50;;;;;;5083871;28;20027;-52
2022/12/09 06:01:26;;;;;;;5.05;2.75;;;26.50;84.50;;;;;;5083775;28;20312;-52
2022/12/09 06:03:53;;;;;;;4.10;3.22;;;26.40;84.50;;;;;;5083942;28;20321;-51
2022/12/09 06:06:22;;;;;;;4.07;3.17;;;26.40;84.60;;;;;;5083882;28;20037;-48
2022/12/09 06:08:53;;;;;;;5.05;3.90;;;26.40;84.50;;;;;;5064259;28;20358;-51
2022/12/09 06:11:21;;;;;;;3.80;3.50;;;26.40;84.50;;;;;;5023338;28;20035;-48
2022/12/09 06:13:48;;;;;;;5.32;3.53;;;26.40;84.60;;;;;;5012800;28;20046;-50
2022/12/09 06:16:18;;;;;;;3.63;3.10;;;26.40;84.70;;;;;;5019971;28;20037;-52
2022/12/09 06:18:46;;;;;;;3.83;3.20;;;26.40;84.60;;;;;;5016312;28;20039;-46
2022/12/09 06:21:15;;;;;;;5.13;3.00;;;26.40;84.60;;;;;;5013148;28;20073;-52
2022/12/09 06:23:42;;;;;;;3.88;2.92;;;26.40;84.60;;;;;;5006965;28;20046;-51
2022/12/09 06:26:25;;;;;;;3.97;2.97;;;26.40;84.60;;;;;;5013180;28;20045;-51
2022/12/09 06:28:52;;;;;;;3.50;2.80;;;26.40;84.60;;;;;;4991428;28;20098;-49
2022/12/09 06:31:19;;;;;;;7.68;3.17;;;26.30;84.60;;;;;;4985386;28;20030;-48
2022/12/09 06:33:46;;;;;;;3.28;2.92;;;26.40;84.70;;;;;;4985244;28;20098;-60
2022/12/09 06:36:12;;;;;;;3.60;2.80;;;26.30;84.60;;;;;;5028442;28;20024;-48
2022/12/09 06:38:39;;;;;;;6.15;3.20;;;26.30;84.60;;;;;;5087844;28;20071;-48
2022/12/09 06:41:08;;;;;;;3.97;3.40;;;26.30;84.60;;;;;;5087419;28;20053;-51
2022/12/09 06:43:35;;;;;;;3.85;2.75;;;26.30;84.60;;;;;;5087285;28;20035;-46
2022/12/09 06:46:02;;;;;;;5.22;2.97;;;26.30;84.70;;;;;;5087119;28;20050;-47
2022/12/09 06:48:28;;;;;;;6.65;3.20;;;26.30;84.80;;;;;;5087366;28;20027;-47
2022/12/09 06:50:55;;;;;;;4.78;2.80;;;26.30;84.80;;;;;;5084076;28;20028;-48
2022/12/09 06:53:22;;;;;;;5.05;3.13;;;26.30;84.90;;;;;;4992758;28;20330;-48
2022/12/09 06:55:48;;;;;;;4.88;3.13;;;26.30;85.10;;;;;;5004694;28;20026;-49
2022/12/09 06:58:15;;;;;;;5.00;2.78;;;26.30;85.20;;;;;;5004198;28;20034;-51
2022/12/09 07:00:41;;;;;;;5.57;3.08;;;26.30;85.10;;;;;;5004175;28;20064;-48
2022/12/09 07:03:11;;;;;;;5.47;3.88;;;26.20;85.10;;;;;;5004254;28;20055;-51
2022/12/09 07:05:38;;;;;;;5.18;3.58;;;26.20;85.00;;;;;;5003866;28;20046;-54
2022/12/09 07:08:05;;;;;;;5.07;3.60;;;26.30;85.20;;;;;;5004241;28;20026;-53
2022/12/09 07:10:31;;;;;;;4.78;3.50;;;26.20;85.10;;;;;;5004173;28;20037;-50
2022/12/09 07:12:58;;;;;;;6.43;3.70;;;26.20;85.10;;;;;;5004447;28;20053;-51
2022/12/09 07:15:24;;;;;;;7.70;3.70;;;26.20;85.20;;;;;;5004057;28;20030;-55
2022/12/09 07:17:51;;;;;;;7.55;3.45;;;26.20;85.30;;;;;;5004514;28;20030;-52
2022/12/09 07:20:18;;;;;;;6.20;3.50;;;26.20;85.40;;;;;;5003907;28;20215;-50
2022/12/09 07:22:44;;;;;;;5.30;3.40;;;26.10;85.40;;;;;;5003868;28;20021;-48
2022/12/09 07:25:11;;;;;;;5.43;3.47;;;26.10;86.10;;;;;;5003343;28;20042;-51
2022/12/09 07:27:38;;;;;;;4.45;3.50;;;26.10;85.70;;;;;;5003650;28;20094;-50
2022/12/09 07:30:06;;;;;;;6.25;3.55;;;26.10;85.80;;;;;;5003957;28;20037;-51
2022/12/09 07:32:33;;;;;;;5.57;3.15;;;26.10;85.90;;;;;;5004498;28;20033;-50
2022/12/09 07:34:59;;;;;;;6.05;3.20;;;26.10;86.00;;;;;;5003632;28;20196;-50
2022/12/09 07:37:26;;;;;;;5.38;3.38;;;26.10;86.20;;;;;;5004233;28;20034;-51
2022/12/09 07:39:52;;;;;;;4.93;3.40;;;26.10;86.20;;;;;;5003829;28;20061;-54
2022/12/09 07:42:19;;;;;;;7.05;3.30;;;26.10;86.40;;;;;;5003866;28;20034;-51
2022/12/09 07:44:48;;;;;;;8.70;3.65;;;26.10;86.50;;;;;;5003646;28;20035;-49
2022/12/09 07:47:15;;;;;;;7.20;3.47;;;26.10;86.70;;;;;;5003964;28;20082;-49
2022/12/09 07:49:42;;;;;;;9.02;3.42;;;26.10;86.80;;;;;;5003403;28;20312;-52
2022/12/09 07:52:08;;;;;;;6.75;3.60;;;26.00;86.70;;;;;;5003798;28;20098;-53
2022/12/09 07:54:35;;;;;;;8.00;3.50;;;26.00;86.90;;;;;;5003426;28;20034;-49
2022/12/09 07:57:01;;;;;;;4.60;3.45;;;26.00;87.00;;;;;;5003655;28;20026;-47
2022/12/09 07:59:28;;;;;;;6.30;3.55;;;26.00;87.10;;;;;;5003667;28;20042;-52
2022/12/09 08:01:55;;;;;;;6.53;3.50;;;26.00;87.20;;;;;;5003623;28;20046;-49
2022/12/09 08:04:21;;;;;;;11.25;3.70;;;26.00;87.40;;;;;;5003407;28;20034;-53
2022/12/09 08:06:48;;;;;;;7.70;3.53;;;26.00;87.50;;;;;;4996221;28;20030;-48
2022/12/09 08:09:14;;;;;;;8.15;3.45;;;25.90;87.50;;;;;;4998464;28;20398;-50
2022/12/09 08:11:41;;;;;;;5.63;3.85;;;25.90;87.60;;;;;;5003493;28;20030;-49
2022/12/09 08:14:10;;;;;;;6.15;3.63;;;25.90;87.80;;;;;;5003063;28;20026;-47
2022/12/09 08:16:37;;;;;;;4.95;3.72;;;25.90;87.90;;;;;;5003462;28;20030;-51
2022/12/09 08:19:04;;;;;;;7.18;3.97;;;25.90;88.00;;;;;;5003105;28;20105;-48
2022/12/09 08:21:31;;;;;;;4.43;3.40;;;25.90;88.20;;;;;;5003201;28;20068;-50
2022/12/09 08:24:00;;;;;;;7.25;3.90;;;25.90;88.30;;;;;;5002996;28;20026;-52
2022/12/09 08:26:29;;;;;;;7.88;4.13;;;25.90;88.30;;;;;;5003133;28;20045;-55
2022/12/09 08:28:56;;;;;;;4.95;3.67;;;25.80;88.30;;;;;;5003021;28;20034;-55
2022/12/09 08:31:25;;;;;;;6.78;4.10;;;25.80;88.30;;;;;;5003085;28;20034;-56
2022/12/09 08:33:52;;;;;;;4.65;3.78;;;25.80;88.20;;;;;;5002878;28;20071;-54
2022/12/09 08:36:22;;;;;;;10.65;3.72;;;25.80;88.30;;;;;;5002964;28;20038;-53
2022/12/09 08:38:49;;;;;;;8.23;3.88;;;25.80;88.40;;;;;;5002783;28;20045;-50
2022/12/09 08:41:18;;;;;;;7.60;4.13;;;25.80;88.50;;;;;;5002771;28;20029;-48
2022/12/09 08:43:45;;;;;;;7.25;4.05;;;25.80;88.60;;;;;;5002761;28;20038;-49
2022/12/09 08:46:13;;;;;;;6.95;3.75;;;25.70;88.50;;;;;;5002622;28;20114;-54
2022/12/09 08:48:41;;;;;;;8.88;3.88;;;25.80;88.60;;;;;;5002549;28;20034;-48
2022/12/09 08:51:09;;;;;;;11.02;4.10;;;25.70;88.60;;;;;;5002640;28;20022;-48
2022/12/09 08:53:36;;;;;;;6.40;3.72;;;25.70;88.60;;;;;;5002774;28;20041;-53
2022/12/09 08:56:13;;;;;;;9.73;3.78;;;25.70;88.60;;;;;;5002438;28;20110;-53
2022/12/09 08:58:41;;;;;;;10.75;4.00;;;25.70;88.60;;;;;;5002552;28;20030;-50
2022/12/09 09:01:17;;;;;;;8.98;3.92;;;25.70;88.70;;;;;;5002535;28;20030;-51
2022/12/09 09:03:44;;;;;;;10.60;3.80;;;25.70;88.80;;;;;;5002424;28;20230;-51
2022/12/09 09:06:12;;;;;;;17.75;4.50;;;25.70;88.80;;;;;;5002041;28;20265;-49
2022/12/09 09:08:39;;;;;;;12.38;3.83;;;25.60;88.80;;;;;;5019292;28;20030;-53
2022/12/09 09:11:16;;;;;;;7.05;3.90;;;25.60;88.90;;;;;;5084571;28;20024;-53
2022/12/09 09:13:44;;;;;;;8.18;3.33;;;25.60;88.90;;;;;;5084638;28;20028;-48
2022/12/09 09:16:13;;;;;;;7.53;3.40;;;25.60;88.90;;;;;;5084637;28;20257;-50
2022/12/09 09:18:40;;;;;;;8.43;3.72;;;25.60;88.90;;;;;;5084447;28;20051;-49
2022/12/09 09:21:09;;;;;;;8.98;3.65;;;25.50;88.90;;;;;;5084523;28;20380;-50
2022/12/09 09:23:36;;;;;;;9.07;3.60;;;25.50;88.90;;;;;;5084229;28;20083;-53
2022/12/09 09:26:03;;;;;;;8.18;3.50;;;25.50;89.00;;;;;;5084261;28;20051;-52
2022/12/09 09:28:29;;;;;;;8.73;3.95;;;25.50;89.00;;;;;;5084237;28;20065;-53
2022/12/09 09:31:04;;;;;;;6.85;3.40;;;25.50;89.00;;;;;;5084099;28;20024;-48
2022/12/09 09:33:31;;;;;;;7.80;3.63;;;25.50;88.80;;;;;;5084317;28;20261;-48
2022/12/09 09:36:00;;;;;;;5.45;3.80;;;25.50;88.70;;;;;;5084185;28;20036;-49
2022/12/09 09:38:27;;;;;;;5.78;3.40;;;25.50;88.70;;;;;;5084178;28;20036;-51
2022/12/09 09:40:55;;;;;;;6.53;3.85;;;25.50;88.70;;;;;;5084094;28;20032;-47
2022/12/09 09:43:35;;;;;;;6.20;2.90;;;25.40;88.50;;;;;;5083985;28;20050;-53
2022/12/09 09:46:05;;;;;;;8.30;3.42;;;25.40;88.50;;;;;;5083945;28;20082;-48
2022/12/09 09:48:34;;;;;;;4.70;3.22;;;25.40;88.50;;;;;;5083517;28;20229;-52
2022/12/09 09:51:14;;;;;;;4.43;3.15;;;25.40;88.40;;;;;;5083768;28;20028;-49
2022/12/09 09:53:41;;;;;;;6.95;3.55;;;25.40;88.40;;;;;;5084255;28;20029;-50
2022/12/09 09:56:32;;;;;;;4.88;3.30;;;25.40;88.40;;;;;;5083899;28;20098;-50
2022/12/09 09:59:18;;;;;;;7.90;3.45;;;25.30;88.50;;;;;;5084041;28;20074;-50
2022/12/09 10:02:11;;;;;;;6.00;3.38;;;25.30;88.40;;;;;;5084044;28;20016;-49
2022/12/09 10:05:07;;;;;;;3.83;3.15;;;25.30;88.40;;;;;;5083703;28;20096;-49
2022/12/09 10:07:45;;;;;;;6.35;2.97;;;25.40;88.50;;;;;;5072017;28;20203;-51
2022/12/09 10:10:38;;;;;;;4.25;3.58;;;25.30;88.50;;;;;;5044417;28;20310;-55
2022/12/09 10:13:20;;;;;;;8.35;3.55;;;25.30;88.40;;;;;;5049416;28;20091;-52
2022/12/09 10:15:57;;;;;;;;;;;25.30;88.20;;;;;;5084053;28;20040;-51
2022/12/09 10:18:33;;;;;;;7.53;3.35;;;25.30;88.20;;;;;;5083701;28;19917;-52
2022/12/09 10:20:59;;;;;;;5.30;3.47;;;25.30;88.20;;;;;;5083959;28;20032;-49
2022/12/09 10:23:30;;;;;;;6.25;3.70;;;25.30;88.70;;;;;;5083810;28;20024;-58
2022/12/09 10:26:01;;;;;;;5.72;3.55;;;25.30;88.10;;;;;;5083617;28;20032;-53
2022/12/09 10:28:41;;;;;;;7.03;4.25;;;25.30;88.00;;;;;;5083637;28;20031;-50
2022/12/09 10:31:10;;;;;;;6.72;4.20;;;25.30;88.00;;;;;;5083675;28;20027;-49
2022/12/09 10:33:38;;;;;;;6.10;4.25;;;25.30;87.80;;;;;;5083603;28;20216;-47
2022/12/09 10:36:06;;;;;;;6.55;4.32;;;25.30;87.90;;;;;;5083416;28;20069;-52
2022/12/09 10:38:39;;;;;;;7.47;4.50;;;25.30;87.80;;;;;;5083477;28;20040;-49
2022/12/09 10:43:33;;;;;;;;;;;25.30;87.60;;;;;;5083956;28;20028;-50
2022/12/09 10:44:23;;;;;;;5.50;4.28;;;25.30;87.60;;;;;;5027985;28;19985;-55
2022/12/09 10:46:58;;;;;;;9.75;4.70;;;25.20;87.70;;;;;;5025075;28;20042;-52
2022/12/09 10:49:25;;;;;;;8.25;4.63;;;25.20;87.80;;;;;;5074313;28;20099;-47
2022/12/09 10:51:53;;;;;;;12.13;4.75;;;25.20;87.80;;;;;;5083539;28;20024;-47
2022/12/09 10:54:26;;;;;;;9.90;4.90;;;25.20;87.80;;;;;;5031579;28;20023;-51
2022/12/09 10:57:11;;;;;;;11.18;4.50;;;25.20;87.90;;;;;;5025337;28;20029;-50
2022/12/09 10:59:41;;;;;;;9.30;4.13;;;25.20;88.00;;;;;;5083527;28;20021;-52
2022/12/09 11:02:07;;;;;;;8.35;6.03;;;25.20;88.00;;;;;;5087314;28;20303;-51
2022/12/09 11:04:37;;;;;;;20.40;13.13;;;25.20;88.10;;;;;;5086800;28;20051;-46
2022/12/09 11:07:16;;;;;;;21.13;13.60;;;25.20;88.20;;;;;;5035305;28;20030;-47
2022/12/09 11:10:02;;;;;;;18.25;12.15;;;25.20;88.20;;;;;;5084818;28;20028;-50
2022/12/09 11:12:28;;;;;;;15.32;9.38;;;25.20;88.30;;;;;;5040388;28;20054;-51
2022/12/09 11:15:05;;;;;;;13.60;7.28;;;25.20;88.30;;;;;;5041529;28;20035;-47
2022/12/09 11:17:38;;;;;;;15.80;6.93;;;25.30;88.50;;;;;;5041997;28;20035;-50
2022/12/09 11:20:05;;;;;;;14.60;5.95;;;25.30;88.70;;;;;;5068209;28;20032;-53
2022/12/09 11:22:38;;;;;;;73.75;8.60;;;25.30;88.70;;;;;;5086986;28;20032;-49
2022/12/09 11:25:11;;;;;;;25.23;6.50;;;25.30;88.70;;;;;;5025704;28;20034;-53
2022/12/09 11:27:49;;;;;;;20.60;6.45;;;25.30;88.50;;;;;;5062742;28;20026;-56
2022/12/09 11:30:19;;;;;;;13.25;5.22;;;25.30;88.40;;;;;;5034435;28;20099;-55
2022/12/09 11:33:06;;;;;;;13.43;5.63;;;25.30;88.10;;;;;;5086909;28;20029;-55
2022/12/09 11:35:33;;;;;;;17.02;6.10;;;25.30;88.10;;;;;;5086596;28;20029;-60
2022/12/09 11:38:15;;;;;;;12.52;6.18;;;25.40;88.60;;;;;;5086528;28;20037;-53
2022/12/09 11:40:43;;;;;;;12.45;6.07;;;25.40;88.10;;;;;;5086235;28;20197;-53
2022/12/09 11:43:09;;;;;;;15.57;5.85;;;25.50;88.20;;;;;;5086306;28;20032;-53
2022/12/09 11:45:38;;;;;;;12.77;5.15;;;25.50;88.20;;;;;;5085241;28;20331;-51
2022/12/09 11:48:24;;;;;;;15.98;5.68;;;25.50;88.30;;;;;;5084506;28;20285;-53
2022/12/09 11:50:51;;;;;;;11.13;5.22;;;25.50;88.30;;;;;;5084188;28;20220;-52
2022/12/09 11:56:42;;;;;;;8.60;4.43;;;25.50;88.20;;;;;;5086396;28;20062;-53
2022/12/09 11:59:16;;;;;;;9.73;5.05;;;25.50;88.20;;;;;;5085814;28;20031;-52
2022/12/09 12:01:49;;;;;;;15.50;4.72;;;25.50;88.20;;;;;;5068229;28;20048;-54
2022/12/09 12:04:25;;;;;;;10.50;5.30;;;25.60;88.30;;;;;;5034954;28;20063;-54
2022/12/09 12:07:00;;;;;;;17.95;5.68;;;25.60;88.20;;;;;;5085931;28;20096;-53
2022/12/09 12:09:39;;;;;;;13.05;5.72;;;25.60;88.20;;;;;;5085705;28;20339;-54
2022/12/09 12:12:33;;;;;;;11.75;5.50;;;25.60;88.10;;;;;;5085281;28;20104;-56
2022/12/09 12:15:10;;;;;;;13.93;5.00;;;25.70;88.70;;;;;;5021429;28;20027;-54
2022/12/09 12:17:47;;;;;;;17.23;5.32;;;25.70;88.20;;;;;;5086076;28;20182;-53
2022/12/09 12:20:14;;;;;;;8.70;4.82;;;25.70;88.10;;;;;;5085537;28;20150;-53
2022/12/09 12:22:59;;;;;;;10.82;5.13;;;25.70;88.20;;;;;;5085642;28;20033;-54
2022/12/09 12:26:05;;;;;;;15.95;5.20;;;25.70;88.40;;;;;;5083302;28;20060;-55
2022/12/09 12:28:47;;;;;;;17.50;5.22;;;25.70;88.40;;;;;;4972864;28;20028;-55
2022/12/09 12:31:29;;;;;;;11.82;4.85;;;25.80;88.90;;;;;;4964339;29;20081;-54
2022/12/09 12:34:43;;;;;;;11.77;4.90;;;25.80;88.10;;;;;;4964100;29;20039;-54
2022/12/09 12:37:48;;;;;;;8.18;4.50;;;25.90;87.70;;;;;;4948251;29;20279;-53
2022/12/09 12:40:21;;;;;;;7.32;4.00;;;25.90;87.60;;;;;;4963626;29;20051;-55
2022/12/09 12:46:17;;;;;;;8.88;4.70;;;25.90;87.60;;;;;;4963846;29;20108;-55
2022/12/09 12:49:29;;;;;;;10.60;4.72;;;26.00;87.60;;;;;;4963835;28;20080;-57
2022/12/09 12:52:30;;;;;;;6.85;4.15;;;26.00;87.80;;;;;;4964036;28;20031;-56
2022/12/09 12:55:16;;;;;;;7.78;4.00;;;26.10;87.90;;;;;;4963776;28;20369;-55
2022/12/09 12:58:05;;;;;;;10.02;4.18;;;26.10;87.80;;;;;;4964230;28;20217;-59
2022/12/09 13:00:51;;;;;;;11.13;4.07;;;26.10;87.60;;;;;;4962628;28;20117;-55
2022/12/09 13:03:47;;;;;;;12.38;4.63;;;26.10;87.40;;;;;;4963613;28;20074;-53
2022/12/09 13:06:18;;;;;;;8.25;4.18;;;26.20;87.30;;;;;;4963659;28;20031;-55
2022/12/09 13:09:00;;;;;;;8.77;4.38;;;26.20;87.30;;;;;;4963459;28;20323;-55
2022/12/09 13:12:06;;;;;;;9.00;4.07;;;26.20;87.10;;;;;;4963812;28;20032;-54